createdAt,value
2018-01-16T00:01:03.220Z,87.10
2018-01-16T00:03:33.068Z,87.30
2018-01-16T00:06:02.495Z,87.50
2018-01-16T00:08:31.266Z,87.20
2018-01-16T00:11:02.283Z,87.00
2018-01-16T00:13:31.039Z,87.00
2018-01-16T00:15:59.513Z,87.50
2018-01-16T00:18:28.457Z,87.10
2018-01-16T00:20:57.490Z,87.30
2018-01-16T00:23:26.362Z,87.50
2018-01-16T00:25:54.582Z,87.20
2018-01-16T00:28:23.329Z,87.30
2018-01-16T00:30:52.639Z,87.50
2018-01-16T00:33:21.210Z,87.50
2018-01-16T00:35:49.929Z,87.50
2018-01-16T00:38:18.741Z,87.50
2018-01-16T00:40:48.411Z,87.60
2018-01-16T00:43:18.190Z,87.10
2018-01-16T00:45:47.171Z,87.20
2018-01-16T00:48:16.678Z,86.90
2018-01-16T00:50:46.311Z,86.00
2018-01-16T00:53:15.069Z,86.00
2018-01-16T00:55:44.681Z,85.50
2018-01-16T00:58:14.290Z,84.30
2018-01-16T01:00:42.820Z,84.00
2018-01-16T01:03:11.936Z,83.20
2018-01-16T01:05:41.571Z,82.50
2018-01-16T01:08:10.142Z,81.80
2018-01-16T01:10:39.248Z,81.70
2018-01-16T01:13:08.699Z,81.60
2018-01-16T01:15:37.505Z,82.00
2018-01-16T01:18:07.822Z,82.20
2018-01-16T01:20:36.411Z,81.80
2018-01-16T01:23:05.710Z,82.20
2018-01-16T01:25:34.467Z,82.10
2018-01-16T01:28:03.278Z,81.70
2018-01-16T01:30:32.452Z,81.30
2018-01-16T01:33:00.880Z,81.40
2018-01-16T01:35:29.174Z,80.70
2018-01-16T01:37:57.728Z,80.60
2018-01-16T01:40:26.775Z,80.70
2018-01-16T01:42:56.321Z,80.40
2018-01-16T01:45:26.961Z,80.40
2018-01-16T01:47:56.034Z,80.50
2018-01-16T01:50:24.686Z,80.80
2018-01-16T01:52:53.340Z,80.90
2018-01-16T01:55:22.017Z,81.00
2018-01-16T01:57:50.612Z,81.20
2018-01-16T02:00:19.566Z,80.90
2018-01-16T02:02:49.188Z,80.60
2018-01-16T02:05:17.841Z,80.50
2018-01-16T02:07:47.258Z,80.80
2018-01-16T02:10:15.898Z,80.10
2018-01-16T02:12:45.522Z,80.10
2018-01-16T02:15:14.748Z,79.40
2018-01-16T02:17:44.946Z,79.10
2018-01-16T02:20:13.538Z,79.10
2018-01-16T02:22:42.435Z,79.60
2018-01-16T02:25:11.015Z,79.50
2018-01-16T02:27:40.007Z,78.50
2018-01-16T02:30:09.056Z,77.50
2018-01-16T02:32:38.310Z,77.40
2018-01-16T02:35:07.725Z,78.10
2018-01-16T02:37:36.387Z,77.90
2018-01-16T02:40:05.051Z,78.50
2018-01-16T02:42:34.051Z,78.10
2018-01-16T02:45:02.970Z,77.90
2018-01-16T02:47:31.803Z,77.40
2018-01-16T02:50:01.601Z,75.90
2018-01-16T02:52:31.503Z,74.70
2018-01-16T02:55:00.085Z,75.10
2018-01-16T02:57:28.322Z,74.50
2018-01-16T02:59:56.944Z,74.50
2018-01-16T03:02:25.061Z,74.50
2018-01-16T03:04:54.181Z,74.00
2018-01-16T03:07:22.443Z,73.80
2018-01-16T03:09:50.819Z,74.20
2018-01-16T03:12:19.991Z,74.60
2018-01-16T03:14:49.869Z,74.80
2018-01-16T03:17:18.925Z,75.30
2018-01-16T03:19:47.730Z,75.60
2018-01-16T03:22:16.592Z,75.90
2018-01-16T03:24:45.075Z,76.30
2018-01-16T03:27:13.449Z,76.50
2018-01-16T03:29:42.049Z,76.60
2018-01-16T03:32:11.405Z,76.40
2018-01-16T03:34:40.452Z,76.60
2018-01-16T03:37:09.408Z,76.90
2018-01-16T03:39:38.674Z,76.90
2018-01-16T03:42:08.096Z,76.90
2018-01-16T03:44:36.294Z,76.90
2018-01-16T03:47:05.660Z,77.00
2018-01-16T03:49:34.677Z,76.90
2018-01-16T03:52:04.498Z,76.30
2018-01-16T03:54:33.402Z,76.50
2018-01-16T03:57:02.123Z,76.40
2018-01-16T03:59:30.858Z,76.50
2018-01-16T04:01:59.959Z,76.50
2018-01-16T04:04:29.435Z,76.40
2018-01-16T04:06:58.525Z,76.50
2018-01-16T04:09:26.796Z,76.40
2018-01-16T04:11:55.426Z,76.20
2018-01-16T04:14:23.736Z,75.80
2018-01-16T04:16:51.823Z,76.40
2018-01-16T04:19:20.981Z,77.10
2018-01-16T04:21:49.642Z,79.10
2018-01-16T04:24:19.287Z,80.70
2018-01-16T04:26:47.932Z,82.10
2018-01-16T04:29:16.700Z,83.60
2018-01-16T04:31:45.414Z,84.30
2018-01-16T04:34:14.291Z,84.80
2018-01-16T04:36:43.013Z,85.40
2018-01-16T04:39:11.758Z,86.00
2018-01-16T04:41:40.234Z,86.00
2018-01-16T04:44:08.960Z,85.90
2018-01-16T04:46:37.975Z,86.10
2018-01-16T04:49:07.102Z,86.40
2018-01-16T04:51:35.324Z,86.30
2018-01-16T04:54:04.241Z,86.30
2018-01-16T04:56:33.345Z,86.30
2018-01-16T04:59:02.472Z,85.40
2018-01-16T05:01:30.780Z,85.50
2018-01-16T05:03:59.624Z,85.10
2018-01-16T05:06:28.177Z,84.80
2018-01-16T05:08:56.827Z,84.40
2018-01-16T05:11:26.159Z,84.90
2018-01-16T05:13:55.756Z,84.70
2018-01-16T05:16:24.954Z,85.10
2018-01-16T05:18:54.948Z,86.20
2018-01-16T05:21:23.540Z,86.20
2018-01-16T05:23:52.217Z,86.20
2018-01-16T05:26:20.857Z,86.00
2018-01-16T05:28:49.924Z,86.30
2018-01-16T05:31:18.956Z,86.20
2018-01-16T05:33:47.382Z,86.20
2018-01-16T05:36:16.210Z,86.00
2018-01-16T05:38:44.751Z,85.60
2018-01-16T05:41:13.161Z,85.30
2018-01-16T05:43:42.746Z,85.40
2018-01-16T05:46:11.702Z,84.40
2018-01-16T05:48:40.634Z,84.70
2018-01-16T05:51:09.196Z,84.90
2018-01-16T05:53:38.383Z,84.70
2018-01-16T05:56:07.248Z,84.60
2018-01-16T05:58:35.764Z,83.90
2018-01-16T06:01:04.591Z,84.60
2018-01-16T06:03:33.017Z,84.60
2018-01-16T06:06:02.988Z,84.40
2018-01-16T06:08:32.028Z,84.40
2018-01-16T06:11:00.816Z,84.40
2018-01-16T06:13:29.281Z,84.60
2018-01-16T06:15:58.846Z,84.40
2018-01-16T06:18:27.100Z,83.90
2018-01-16T06:20:55.564Z,83.30
2018-01-16T06:23:24.405Z,83.60
2018-01-16T06:25:53.121Z,83.10
2018-01-16T06:28:22.955Z,81.90
2018-01-16T06:30:52.751Z,81.70
2018-01-16T06:33:21.574Z,81.80
2018-01-16T06:35:51.256Z,82.40
2018-01-16T06:38:19.976Z,82.60
2018-01-16T06:40:48.855Z,81.90
2018-01-16T06:43:18.295Z,81.30
2018-01-16T06:45:48.158Z,81.40
2018-01-16T06:48:17.141Z,80.10
2018-01-16T06:50:46.633Z,79.60
2018-01-16T06:53:15.094Z,79.60
2018-01-16T06:55:44.853Z,79.00
2018-01-16T06:58:13.397Z,78.80
2018-01-16T07:00:43.050Z,78.00
2018-01-16T07:03:12.585Z,77.80
2018-01-16T07:05:41.406Z,77.60
2018-01-16T07:08:09.693Z,77.70
2018-01-16T07:10:38.086Z,78.00
2018-01-16T07:13:06.460Z,77.90
2018-01-16T07:15:35.167Z,78.90
2018-01-16T07:18:04.006Z,79.20
2018-01-16T07:20:33.184Z,78.80
2018-01-16T07:23:01.710Z,80.00
2018-01-16T07:25:30.545Z,80.00
2018-01-16T07:27:58.708Z,80.70
2018-01-16T07:30:26.838Z,80.90
2018-01-16T07:32:56.258Z,81.80
2018-01-16T07:35:25.377Z,82.30
2018-01-16T07:37:54.462Z,84.00
2018-01-16T07:40:24.816Z,84.70
2018-01-16T07:42:53.658Z,83.60
2018-01-16T07:45:23.432Z,84.50
2018-01-16T07:47:52.269Z,84.10
2018-01-16T07:50:20.869Z,84.20
2018-01-16T07:52:51.096Z,83.20
2018-01-16T07:55:20.337Z,83.20
2018-01-16T07:57:49.785Z,83.10
2018-01-16T08:00:19.077Z,83.20
2018-01-16T08:02:47.586Z,83.20
2018-01-16T08:05:16.092Z,82.60
2018-01-16T08:07:45.531Z,81.80
2018-01-16T08:10:14.682Z,82.10
2018-01-16T08:12:43.785Z,82.10
2018-01-16T08:15:13.276Z,80.80
2018-01-16T08:17:42.017Z,80.00
2018-01-16T08:20:10.500Z,79.60
2018-01-16T08:22:39.022Z,79.00
2018-01-16T08:25:07.876Z,79.40
2018-01-16T08:27:37.003Z,79.10
2018-01-16T08:30:05.685Z,77.70
2018-01-16T08:32:34.707Z,76.70
2018-01-16T08:35:03.259Z,77.40
2018-01-16T08:37:32.197Z,75.40
2018-01-16T08:40:01.299Z,75.50
2018-01-16T08:42:30.008Z,75.20
2018-01-16T08:44:59.138Z,75.50
2018-01-16T08:47:27.667Z,75.70
2018-01-16T08:49:57.291Z,76.00
2018-01-16T08:52:26.148Z,76.00
2018-01-16T08:54:54.573Z,78.40
2018-01-16T08:57:24.603Z,79.40
2018-01-16T08:59:53.814Z,79.40
2018-01-16T09:02:23.540Z,79.70
2018-01-16T09:04:52.655Z,79.70
2018-01-16T09:07:22.774Z,79.60
2018-01-16T09:09:51.446Z,80.20
2018-01-16T09:12:19.983Z,80.60
2018-01-16T09:14:48.672Z,81.40
2018-01-16T09:17:17.802Z,81.40
2018-01-16T09:19:47.654Z,81.50
2018-01-16T09:22:16.188Z,81.40
2018-01-16T09:24:46.294Z,81.40
2018-01-16T09:27:15.653Z,81.40
2018-01-16T09:29:44.410Z,82.10
2018-01-16T09:32:13.532Z,80.60
2018-01-16T09:34:42.818Z,80.50
2018-01-16T09:37:12.018Z,81.70
2018-01-16T09:39:40.500Z,80.80
2018-01-16T09:42:08.943Z,79.90
2018-01-16T09:44:37.692Z,79.70
2018-01-16T09:47:06.534Z,78.90
2018-01-16T09:49:35.177Z,76.90
2018-01-16T09:52:03.885Z,76.00
2018-01-16T09:54:33.285Z,75.20
2018-01-16T09:57:02.246Z,75.20
2018-01-16T09:59:31.525Z,73.70
2018-01-16T10:02:00.664Z,72.00
2018-01-16T10:04:28.940Z,71.50
2018-01-16T10:06:57.820Z,71.60
2018-01-16T10:09:26.041Z,72.40
2018-01-16T10:11:55.235Z,72.70
2018-01-16T10:14:24.348Z,71.00
2018-01-16T10:16:54.735Z,69.50
2018-01-16T10:19:23.414Z,69.50
2018-01-16T10:21:54.071Z,68.90
2018-01-16T10:24:23.290Z,68.90
2018-01-16T10:26:52.871Z,70.40
2018-01-16T10:29:21.822Z,71.30
2018-01-16T10:31:50.947Z,71.30
2018-01-16T10:34:19.758Z,71.20
2018-01-16T10:36:48.461Z,72.20
2018-01-16T10:39:16.744Z,75.70
2018-01-16T10:41:46.253Z,77.30
2018-01-16T10:44:15.896Z,79.20
2018-01-16T10:46:45.118Z,80.70
2018-01-16T10:49:13.832Z,81.20
2018-01-16T10:51:44.384Z,80.60
2018-01-16T10:54:14.002Z,81.30
2018-01-16T10:56:42.984Z,82.50
2018-01-16T10:59:12.330Z,82.10
2018-01-16T11:01:41.122Z,83.70
2018-01-16T11:04:09.459Z,84.00
2018-01-16T11:06:38.353Z,83.20
2018-01-16T11:09:07.162Z,83.80
2018-01-16T11:11:35.284Z,83.10
2018-01-16T11:14:05.052Z,84.40
2018-01-16T11:16:33.633Z,84.40
2018-01-16T11:19:02.952Z,85.30
2018-01-16T11:21:32.281Z,84.30
2018-01-16T11:24:01.627Z,85.10
2018-01-16T11:26:29.876Z,85.30
2018-01-16T11:28:59.051Z,84.30
2018-01-16T11:31:27.619Z,84.10
2018-01-16T11:33:56.426Z,84.30
2018-01-16T11:36:25.269Z,84.80
2018-01-16T11:38:54.646Z,84.40
2018-01-16T11:41:23.670Z,83.60
2018-01-16T11:43:52.318Z,83.60
2018-01-16T11:46:21.605Z,83.30
2018-01-16T11:48:50.533Z,83.30
2018-01-16T11:51:20.140Z,83.50
2018-01-16T11:53:49.487Z,82.90
2018-01-16T11:56:18.114Z,83.50
2018-01-16T11:58:48.930Z,83.60
2018-01-16T12:01:18.270Z,85.10
2018-01-16T12:03:47.815Z,82.40
2018-01-16T12:06:17.822Z,82.70
2018-01-16T12:08:47.048Z,82.80
2018-01-16T12:11:15.705Z,84.20
2018-01-16T12:13:44.599Z,84.50
2018-01-16T12:16:13.875Z,85.30
2018-01-16T12:18:42.273Z,85.40
2018-01-16T12:21:11.098Z,86.20
2018-01-16T12:23:39.721Z,86.80
2018-01-16T12:26:09.448Z,88.30
2018-01-16T12:28:38.357Z,88.30
2018-01-16T12:31:07.115Z,87.50
2018-01-16T12:33:36.391Z,88.00
2018-01-16T12:36:05.387Z,89.10
2018-01-16T12:38:35.646Z,89.00
2018-01-16T12:41:04.813Z,89.70
2018-01-16T12:43:35.661Z,90.20
2018-01-16T12:46:04.723Z,90.10
2018-01-16T12:48:33.822Z,90.30
2018-01-16T12:51:02.302Z,90.30
2018-01-16T12:53:31.346Z,90.50
2018-01-16T12:56:00.219Z,90.40
2018-01-16T12:58:29.147Z,90.20
2018-01-16T13:00:57.447Z,89.70
2018-01-16T13:03:26.024Z,88.30
2018-01-16T13:05:54.455Z,88.40
2018-01-16T13:08:23.530Z,87.90
2018-01-16T13:10:52.792Z,87.10
2018-01-16T13:13:22.721Z,87.00
2018-01-16T13:15:51.653Z,86.80
2018-01-16T13:18:21.361Z,86.00
2018-01-16T13:20:50.235Z,85.70
2018-01-16T13:23:19.562Z,84.80
2018-01-16T13:25:48.594Z,84.60
2018-01-16T13:28:18.594Z,84.00
2018-01-16T13:30:47.546Z,84.40
2018-01-16T13:33:15.778Z,84.70
2018-01-16T13:35:45.772Z,84.20
2018-01-16T13:38:14.975Z,84.20
2018-01-16T13:40:45.038Z,85.90
2018-01-16T13:43:14.609Z,85.80
2018-01-16T13:45:43.911Z,85.30
2018-01-16T13:48:12.823Z,86.00
2018-01-16T13:50:41.472Z,86.20
2018-01-16T13:53:10.961Z,87.20
2018-01-16T13:55:40.472Z,87.20
2018-01-16T13:58:09.544Z,88.00
2018-01-16T14:00:39.623Z,88.10
2018-01-16T14:03:08.708Z,88.50
2018-01-16T14:05:38.806Z,88.90
2018-01-16T14:08:08.086Z,88.00
2018-01-16T14:10:38.639Z,88.70
2018-01-16T14:13:07.467Z,88.70
2018-01-16T14:15:37.187Z,88.90
2018-01-16T14:18:05.462Z,89.40
2018-01-16T14:20:35.492Z,87.00
2018-01-16T14:23:04.107Z,86.70
2018-01-16T14:25:33.696Z,85.90
2018-01-16T14:28:02.822Z,86.50
2018-01-16T14:30:32.169Z,86.10
2018-01-16T14:33:01.428Z,83.60
2018-01-16T14:35:30.209Z,83.70
2018-01-16T14:37:58.727Z,84.80
2018-01-16T14:40:27.380Z,85.60
2018-01-16T14:42:55.590Z,85.50
2018-01-16T14:45:24.690Z,83.90
2018-01-16T14:47:53.483Z,83.90
2018-01-16T14:50:22.973Z,83.10
2018-01-16T14:52:51.525Z,83.20
2018-01-16T14:55:21.736Z,84.20
2018-01-16T14:57:50.143Z,84.40
2018-01-16T15:00:19.218Z,84.30
2018-01-16T15:02:47.971Z,84.30
2018-01-16T15:05:17.046Z,84.50
2018-01-16T15:07:45.509Z,83.50
2018-01-16T15:10:16.338Z,84.00
2018-01-16T15:12:45.348Z,82.80
2018-01-16T15:15:13.769Z,83.30
2018-01-16T15:17:43.187Z,83.70
2018-01-16T15:20:12.836Z,84.20
2018-01-16T15:22:41.575Z,84.40
2018-01-16T15:25:11.516Z,84.50
2018-01-16T15:27:40.088Z,84.70
2018-01-16T15:30:08.693Z,85.10
2018-01-16T15:32:38.552Z,86.00
2018-01-16T15:35:07.928Z,84.70
2018-01-16T15:37:39.099Z,84.60
2018-01-16T15:40:07.535Z,85.30
2018-01-16T15:42:36.781Z,85.10
2018-01-16T15:45:05.515Z,84.90
2018-01-16T15:47:36.146Z,85.00
2018-01-16T15:50:05.411Z,84.90
2018-01-16T15:52:35.543Z,84.20
2018-01-16T15:55:05.526Z,84.00
2018-01-16T15:57:34.525Z,83.90
2018-01-16T16:00:03.990Z,84.50
2018-01-16T16:02:33.702Z,85.20
2018-01-16T16:05:02.702Z,85.20
2018-01-16T16:07:34.112Z,86.20
2018-01-16T16:10:04.076Z,85.50
2018-01-16T16:12:32.231Z,86.20
2018-01-16T16:15:01.654Z,85.60
2018-01-16T16:17:30.991Z,85.80
2018-01-16T16:20:00.782Z,85.70
2018-01-16T16:22:29.048Z,85.70
2018-01-16T16:24:58.459Z,85.70
2018-01-16T16:27:27.681Z,85.30
2018-01-16T16:29:56.054Z,85.10
2018-01-16T16:32:24.617Z,84.90
2018-01-16T16:34:55.697Z,85.60
2018-01-16T16:37:24.489Z,85.60
2018-01-16T16:39:52.809Z,85.60
2018-01-16T16:42:21.825Z,86.20
2018-01-16T16:44:51.095Z,86.50
2018-01-16T16:47:20.103Z,86.40
2018-01-16T16:49:50.127Z,86.70
2018-01-16T16:52:19.213Z,86.70
2018-01-16T16:54:47.877Z,87.10
2018-01-16T16:57:17.391Z,87.80
2018-01-16T16:59:46.794Z,87.80
2018-01-16T17:02:15.068Z,87.70
2018-01-16T17:04:44.988Z,89.30
2018-01-16T17:07:13.758Z,89.20
2018-01-16T17:09:42.629Z,89.40
2018-01-16T17:12:11.963Z,90.00
2018-01-16T17:14:41.324Z,90.10
2018-01-16T17:17:10.585Z,90.00
2018-01-16T17:19:39.409Z,90.20
2018-01-16T17:22:07.925Z,89.50
2018-01-16T17:24:37.206Z,89.80
2018-01-16T17:27:05.791Z,87.60
2018-01-16T17:29:34.832Z,87.70
2018-01-16T17:32:03.830Z,87.90
2018-01-16T17:34:32.880Z,87.70
2018-01-16T17:37:02.351Z,88.40
2018-01-16T17:39:31.062Z,88.60
2018-01-16T17:42:00.543Z,88.50
2018-01-16T17:44:28.996Z,88.50
2018-01-16T17:46:57.831Z,89.30
2018-01-16T17:49:27.916Z,89.60
2018-01-16T17:51:56.487Z,90.00
2018-01-16T17:54:25.016Z,90.10
2018-01-16T17:56:55.318Z,90.40
2018-01-16T17:59:23.873Z,90.30
2018-01-16T18:01:52.206Z,90.10
2018-01-16T18:04:20.724Z,90.30
2018-01-16T18:06:50.151Z,90.50
2018-01-16T18:09:18.987Z,90.40
2018-01-16T18:11:47.416Z,90.20
2018-01-16T18:14:16.858Z,90.10
2018-01-16T18:16:45.380Z,90.10
2018-01-16T18:19:14.653Z,90.20
2018-01-16T18:21:44.262Z,90.20
2018-01-16T18:24:14.496Z,90.40
2018-01-16T18:26:43.432Z,90.40
2018-01-16T18:29:12.496Z,90.30
2018-01-16T18:31:41.932Z,90.30
2018-01-16T18:34:10.803Z,90.40
2018-01-16T18:36:40.780Z,90.70
2018-01-16T18:39:09.976Z,90.80
2018-01-16T18:41:39.603Z,90.90
2018-01-16T18:44:08.613Z,90.50
2018-01-16T18:46:37.089Z,90.60
2018-01-16T18:49:05.932Z,90.40
2018-01-16T18:51:34.978Z,90.20
2018-01-16T18:54:04.287Z,90.10
2018-01-16T18:56:33.591Z,90.50
2018-01-16T18:59:02.988Z,90.10
2018-01-16T19:01:32.341Z,89.00
2018-01-16T19:04:01.496Z,89.20
2018-01-16T19:06:30.096Z,89.20
2018-01-16T19:08:59.423Z,88.90
2018-01-16T19:11:27.644Z,88.80
2018-01-16T19:13:56.135Z,88.20
2018-01-16T19:16:24.810Z,88.00
2018-01-16T19:18:53.642Z,88.20
2018-01-16T19:21:22.096Z,88.30
2018-01-16T19:23:50.401Z,87.90
2018-01-16T19:26:19.089Z,88.20
2018-01-16T19:28:48.639Z,88.40
2018-01-16T19:31:17.340Z,88.30
2018-01-16T19:33:46.489Z,88.10
2018-01-16T19:36:15.643Z,89.30
2018-01-16T19:38:44.855Z,88.70
2018-01-16T19:41:14.063Z,89.00
2018-01-16T19:43:45.324Z,89.30
2018-01-16T19:46:14.344Z,89.60
2018-01-16T19:48:43.512Z,89.80
2018-01-16T19:51:12.848Z,90.20
2018-01-16T19:53:43.018Z,90.20
2018-01-16T19:56:12.084Z,90.30
2018-01-16T19:58:41.659Z,90.30
2018-01-16T20:01:10.934Z,90.50
2018-01-16T20:03:40.389Z,90.60
2018-01-16T20:06:08.695Z,90.50
2018-01-16T20:08:37.289Z,90.60
2018-01-16T20:11:07.076Z,90.70
2018-01-16T20:13:36.160Z,90.70
2018-01-16T20:16:04.910Z,90.90
2018-01-16T20:18:33.894Z,90.80
2018-01-16T20:21:03.902Z,90.90
2018-01-16T20:23:32.670Z,90.70
2018-01-16T20:26:02.087Z,90.50
2018-01-16T20:28:30.262Z,90.60
2018-01-16T20:30:58.779Z,90.70
2018-01-16T20:33:27.486Z,90.80
2018-01-16T20:35:56.593Z,90.30
2018-01-16T20:38:25.217Z,90.30
2018-01-16T20:40:54.602Z,85.40
2018-01-16T20:43:23.308Z,84.60
2018-01-16T20:45:52.212Z,85.00
2018-01-16T20:48:21.431Z,84.80
2018-01-16T20:50:50.715Z,85.70
2018-01-16T20:53:19.252Z,85.80
2018-01-16T20:55:48.181Z,86.00
2018-01-16T20:58:16.824Z,85.20
2018-01-16T21:00:45.858Z,85.90
2018-01-16T21:03:14.445Z,87.10
2018-01-16T21:05:42.952Z,85.80
2018-01-16T21:08:11.909Z,86.80
2018-01-16T21:10:40.570Z,86.70
2018-01-16T21:13:09.342Z,87.40
2018-01-16T21:15:37.866Z,87.70
2018-01-16T21:18:07.255Z,88.30
2018-01-16T21:20:36.063Z,88.60
2018-01-16T21:23:04.545Z,89.20
2018-01-16T21:25:33.519Z,90.10
2018-01-16T21:28:02.815Z,90.10
2018-01-16T21:30:32.863Z,89.70
2018-01-16T21:33:01.566Z,89.70
2018-01-16T21:35:31.363Z,90.10
2018-01-16T21:37:59.991Z,90.20
2018-01-16T21:40:29.397Z,90.20
2018-01-16T21:42:58.136Z,90.10
2018-01-16T21:45:26.802Z,90.20
2018-01-16T21:47:55.747Z,90.10
2018-01-16T21:50:25.174Z,90.10
2018-01-16T21:52:53.445Z,90.00
2018-01-16T21:55:23.086Z,90.00
2018-01-16T21:57:51.790Z,90.10
2018-01-16T22:00:20.647Z,90.10
2018-01-16T22:02:50.472Z,90.20
2018-01-16T22:05:19.676Z,90.20
2018-01-16T22:07:49.389Z,90.10
2018-01-16T22:10:17.604Z,90.30
2018-01-16T22:12:47.113Z,90.20
2018-01-16T22:15:16.773Z,90.50
2018-01-16T22:17:45.205Z,90.50
2018-01-16T22:20:14.183Z,90.60
2018-01-16T22:22:43.018Z,90.60
2018-01-16T22:25:11.238Z,90.70
2018-01-16T22:27:40.435Z,90.80
2018-01-16T22:30:09.850Z,90.70
2018-01-16T22:32:39.589Z,90.70
2018-01-16T22:35:07.736Z,90.70
2018-01-16T22:37:36.195Z,90.80
2018-01-16T22:40:05.744Z,90.70
2018-01-16T22:42:34.806Z,90.70
2018-01-16T22:45:03.333Z,90.50
2018-01-16T22:47:31.876Z,90.50
2018-01-16T22:50:01.880Z,90.30
2018-01-16T22:52:30.140Z,90.20
2018-01-16T22:54:59.031Z,89.50
2018-01-16T22:57:28.894Z,88.60
2018-01-16T22:59:57.728Z,88.60
2018-01-16T23:02:27.476Z,87.90
2018-01-16T23:04:56.517Z,87.20
2018-01-16T23:07:25.211Z,87.50
2018-01-16T23:09:54.864Z,87.60
2018-01-16T23:12:24.683Z,87.50
2018-01-16T23:14:52.913Z,87.90
2018-01-16T23:17:21.628Z,87.50
2018-01-16T23:19:50.396Z,86.90
2018-01-16T23:22:18.855Z,86.10
2018-01-16T23:24:47.846Z,85.50
2018-01-16T23:27:18.163Z,85.40
2018-01-16T23:29:47.044Z,85.40
2018-01-16T23:32:17.502Z,86.00
2018-01-16T23:34:46.381Z,85.90
2018-01-16T23:37:14.724Z,86.90
2018-01-16T23:39:44.044Z,86.90
2018-01-16T23:42:12.435Z,87.00
2018-01-16T23:44:41.716Z,87.00
2018-01-16T23:47:10.703Z,86.70
2018-01-16T23:49:39.929Z,87.10
2018-01-16T23:52:09.541Z,87.20
2018-01-16T23:54:38.302Z,86.90
2018-01-16T23:57:07.422Z,87.40
2018-01-16T23:59:36.224Z,87.20
